Arnold, Nebraska
Current Conditions -  °F | °C
As of 3:53 AM on Saturday 22 Nov 2014 (Local Time) from KBBW Reporting Station
Clear Clear  
Wind Chill: 24°   Ceiling: Unl
Heat Index: 29°   Visibility: 10mi
Dew Point: 26°   Wind: 5mph
Humidity: 89%   Direction: 240°WSW
Pressure: 29.83"   Gusts: NA
Location:  41.42°N, 100.19°W
Report Text: KBBW 220953Z AUTO 24004KT 10SM CLR M02/M03 A2983 RMK AO2 SLP110 T10171033 PWINO FZRANO $
Loading
Personal Weather Stations






























Interactive Weather Map New forecast layout! Learn more

10-Day Weather Forecast

Advertisements
Track Severe Weather on mobile